sensor_id;sensor_type;location;lat;lon;timestamp;temperature;humidity
48806;DHT22;34625;47.176;27.548;2023-05-24T00:02:25;25.10;55.50
48806;DHT22;34625;47.176;27.548;2023-05-24T00:04:52;25.10;55.60
48806;DHT22;34625;47.176;27.548;2023-05-24T00:07:18;25.10;55.70
48806;DHT22;34625;47.176;27.548;2023-05-24T00:09:44;25.20;55.80
48806;DHT22;34625;47.176;27.548;2023-05-24T00:12:10;25.10;55.80
48806;DHT22;34625;47.176;27.548;2023-05-24T00:14:36;25.00;55.70
48806;DHT22;34625;47.176;27.548;2023-05-24T00:17:02;25.00;55.70
48806;DHT22;34625;47.176;27.548;2023-05-24T00:19:28;25.00;55.80
48806;DHT22;34625;47.176;27.548;2023-05-24T00:21:54;25.00;55.80
48806;DHT22;34625;47.176;27.548;2023-05-24T00:24:20;24.90;55.80
48806;DHT22;34625;47.176;27.548;2023-05-24T00:26:46;25.00;55.70
48806;DHT22;34625;47.176;27.548;2023-05-24T00:29:13;24.90;55.80
48806;DHT22;34625;47.176;27.548;2023-05-24T00:31:39;25.00;55.90
48806;DHT22;34625;47.176;27.548;2023-05-24T00:34:06;24.90;55.90
48806;DHT22;34625;47.176;27.548;2023-05-24T00:36:32;25.00;55.90
48806;DHT22;34625;47.176;27.548;2023-05-24T00:38:58;24.80;55.90
48806;DHT22;34625;47.176;27.548;2023-05-24T00:41:24;25.00;56.00
48806;DHT22;34625;47.176;27.548;2023-05-24T00:43:51;24.80;56.10
48806;DHT22;34625;47.176;27.548;2023-05-24T00:46:24;25.00;56.10
48806;DHT22;34625;47.176;27.548;2023-05-24T00:48:53;25.00;55.80
48806;DHT22;34625;47.176;27.548;2023-05-24T00:51:20;24.90;56.10
48806;DHT22;34625;47.176;27.548;2023-05-24T00:53:47;24.90;55.90
48806;DHT22;34625;47.176;27.548;2023-05-24T00:56:14;24.90;55.90
48806;DHT22;34625;47.176;27.548;2023-05-24T00:58:41;24.90;56.00
48806;DHT22;34625;47.176;27.548;2023-05-24T01:01:07;25.00;56.00
48806;DHT22;34625;47.176;27.548;2023-05-24T01:03:33;24.90;56.00
48806;DHT22;34625;47.176;27.548;2023-05-24T01:06:02;24.90;56.00
48806;DHT22;34625;47.176;27.548;2023-05-24T01:11:00;24.80;55.90
48806;DHT22;34625;47.176;27.548;2023-05-24T01:16:09;24.90;56.10
48806;DHT22;34625;47.176;27.548;2023-05-24T01:18:42;24.90;56.10
48806;DHT22;34625;47.176;27.548;2023-05-24T01:29:16;24.70;56.10
48806;DHT22;34625;47.176;27.548;2023-05-24T01:31:42;24.70;56.10
48806;DHT22;34625;47.176;27.548;2023-05-24T01:34:10;24.60;56.10
48806;DHT22;34625;47.176;27.548;2023-05-24T01:36:36;24.70;56.30
48806;DHT22;34625;47.176;27.548;2023-05-24T01:39:02;24.70;56.30
48806;DHT22;34625;47.176;27.548;2023-05-24T01:41:38;24.70;56.30
48806;DHT22;34625;47.176;27.548;2023-05-24T01:50:06;24.70;56.40
48806;DHT22;34625;47.176;27.548;2023-05-24T01:52:34;24.70;56.40
48806;DHT22;34625;47.176;27.548;2023-05-24T01:55:02;24.70;56.40
48806;DHT22;34625;47.176;27.548;2023-05-24T01:57:32;24.70;56.30
48806;DHT22;34625;47.176;27.548;2023-05-24T02:00:00;24.70;56.40
48806;DHT22;34625;47.176;27.548;2023-05-24T02:02:26;24.70;56.30
48806;DHT22;34625;47.176;27.548;2023-05-24T02:04:53;24.70;56.30
48806;DHT22;34625;47.176;27.548;2023-05-24T02:07:19;24.70;56.30
48806;DHT22;34625;47.176;27.548;2023-05-24T02:09:45;24.60;56.20
48806;DHT22;34625;47.176;27.548;2023-05-24T02:12:12;24.70;56.20
48806;DHT22;34625;47.176;27.548;2023-05-24T02:14:38;24.60;56.10
48806;DHT22;34625;47.176;27.548;2023-05-24T02:17:07;24.70;56.10
48806;DHT22;34625;47.176;27.548;2023-05-24T02:19:34;24.60;56.10
48806;DHT22;34625;47.176;27.548;2023-05-24T02:22:01;24.50;56.20
48806;DHT22;34625;47.176;27.548;2023-05-24T02:24:29;24.70;56.20
48806;DHT22;34625;47.176;27.548;2023-05-24T02:26:55;24.60;56.10
48806;DHT22;34625;47.176;27.548;2023-05-24T02:29:21;24.70;56.20
48806;DHT22;34625;47.176;27.548;2023-05-24T02:31:47;24.60;56.20
48806;DHT22;34625;47.176;27.548;2023-05-24T02:34:19;24.50;56.20
48806;DHT22;34625;47.176;27.548;2023-05-24T02:36:45;24.50;56.20
48806;DHT22;34625;47.176;27.548;2023-05-24T02:39:11;24.50;56.20
48806;DHT22;34625;47.176;27.548;2023-05-24T02:41:37;24.50;56.30
48806;DHT22;34625;47.176;27.548;2023-05-24T02:44:03;24.50;56.40
48806;DHT22;34625;47.176;27.548;2023-05-24T02:46:30;24.50;56.40
48806;DHT22;34625;47.176;27.548;2023-05-24T02:48:56;24.50;56.40
48806;DHT22;34625;47.176;27.548;2023-05-24T02:51:22;24.50;56.40
48806;DHT22;34625;47.176;27.548;2023-05-24T02:53:48;24.50;56.50
48806;DHT22;34625;47.176;27.548;2023-05-24T02:56:14;24.40;56.30
48806;DHT22;34625;47.176;27.548;2023-05-24T02:58:42;24.50;56.40
48806;DHT22;34625;47.176;27.548;2023-05-24T03:01:10;24.50;56.40
48806;DHT22;34625;47.176;27.548;2023-05-24T03:03:40;24.50;56.30
48806;DHT22;34625;47.176;27.548;2023-05-24T03:06:06;24.50;56.30
48806;DHT22;34625;47.176;27.548;2023-05-24T03:08:33;24.50;56.40
48806;DHT22;34625;47.176;27.548;2023-05-24T03:10:59;24.50;56.30
48806;DHT22;34625;47.176;27.548;2023-05-24T03:13:25;24.50;56.20
48806;DHT22;34625;47.176;27.548;2023-05-24T03:15:51;24.50;56.20
48806;DHT22;34625;47.176;27.548;2023-05-24T03:18:17;24.50;56.10
48806;DHT22;34625;47.176;27.548;2023-05-24T03:20:44;24.50;56.10
48806;DHT22;34625;47.176;27.548;2023-05-24T03:23:13;24.50;56.00
48806;DHT22;34625;47.176;27.548;2023-05-24T03:25:39;24.50;56.00
48806;DHT22;34625;47.176;27.548;2023-05-24T03:28:06;24.60;56.00
48806;DHT22;34625;47.176;27.548;2023-05-24T03:30:32;24.60;55.90
48806;DHT22;34625;47.176;27.548;2023-05-24T03:33:02;24.50;55.90
48806;DHT22;34625;47.176;27.548;2023-05-24T03:35:28;24.50;55.80
48806;DHT22;34625;47.176;27.548;2023-05-24T03:37:55;24.60;55.80
48806;DHT22;34625;47.176;27.548;2023-05-24T03:40:21;24.50;55.80
48806;DHT22;34625;47.176;27.548;2023-05-24T03:43:01;24.60;55.60
48806;DHT22;34625;47.176;27.548;2023-05-24T03:45:47;24.50;55.60
48806;DHT22;34625;47.176;27.548;2023-05-24T03:48:13;24.50;55.70
48806;DHT22;34625;47.176;27.548;2023-05-24T03:50:39;24.60;55.70
48806;DHT22;34625;47.176;27.548;2023-05-24T03:53:05;24.60;55.50
48806;DHT22;34625;47.176;27.548;2023-05-24T03:55:31;24.70;55.50
48806;DHT22;34625;47.176;27.548;2023-05-24T03:57:57;24.70;55.40
48806;DHT22;34625;47.176;27.548;2023-05-24T04:00:23;24.70;55.30
48806;DHT22;34625;47.176;27.548;2023-05-24T04:02:49;24.70;55.30
48806;DHT22;34625;47.176;27.548;2023-05-24T04:05:15;24.70;55.30
48806;DHT22;34625;47.176;27.548;2023-05-24T04:07:41;24.70;55.30
48806;DHT22;34625;47.176;27.548;2023-05-24T04:10:11;24.70;55.30
48806;DHT22;34625;47.176;27.548;2023-05-24T04:12:37;24.70;55.30
48806;DHT22;34625;47.176;27.548;2023-05-24T04:15:06;24.90;55.30
48806;DHT22;34625;47.176;27.548;2023-05-24T04:17:32;24.90;55.10
48806;DHT22;34625;47.176;27.548;2023-05-24T04:20:00;24.80;54.90
48806;DHT22;34625;47.176;27.548;2023-05-24T04:22:28;24.90;54.90
48806;DHT22;34625;47.176;27.548;2023-05-24T04:24:56;24.80;54.80
48806;DHT22;34625;47.176;27.548;2023-05-24T04:27:22;24.90;54.90
48806;DHT22;34625;47.176;27.548;2023-05-24T04:29:50;24.90;55.00
48806;DHT22;34625;47.176;27.548;2023-05-24T04:32:17;25.00;55.00
48806;DHT22;34625;47.176;27.548;2023-05-24T04:34:44;24.90;55.00
48806;DHT22;34625;47.176;27.548;2023-05-24T04:37:11;24.80;54.80
48806;DHT22;34625;47.176;27.548;2023-05-24T04:39:38;24.80;54.80
48806;DHT22;34625;47.176;27.548;2023-05-24T04:42:06;24.80;54.70
48806;DHT22;34625;47.176;27.548;2023-05-24T04:44:32;24.90;54.70
48806;DHT22;34625;47.176;27.548;2023-05-24T04:46:58;24.90;55.40
48806;DHT22;34625;47.176;27.548;2023-05-24T04:49:25;25.10;55.10
48806;DHT22;34625;47.176;27.548;2023-05-24T04:51:51;25.00;54.30
48806;DHT22;34625;47.176;27.548;2023-05-24T04:54:17;25.20;53.60
48806;DHT22;34625;47.176;27.548;2023-05-24T04:56:43;25.30;51.80
48806;DHT22;34625;47.176;27.548;2023-05-24T04:59:09;25.30;51.10
48806;DHT22;34625;47.176;27.548;2023-05-24T05:01:35;25.30;52.30
48806;DHT22;34625;47.176;27.548;2023-05-24T05:04:02;25.30;52.50
48806;DHT22;34625;47.176;27.548;2023-05-24T05:06:31;25.40;53.20
48806;DHT22;34625;47.176;27.548;2023-05-24T05:08:59;25.50;52.10
48806;DHT22;34625;47.176;27.548;2023-05-24T05:11:25;25.60;50.50
48806;DHT22;34625;47.176;27.548;2023-05-24T05:13:52;25.60;50.30
48806;DHT22;34625;47.176;27.548;2023-05-24T05:16:19;25.60;51.20
48806;DHT22;34625;47.176;27.548;2023-05-24T05:18:45;25.50;49.50
48806;DHT22;34625;47.176;27.548;2023-05-24T05:21:11;25.60;49.80
48806;DHT22;34625;47.176;27.548;2023-05-24T05:23:37;25.70;51.10
48806;DHT22;34625;47.176;27.548;2023-05-24T05:26:04;25.70;49.50
48806;DHT22;34625;47.176;27.548;2023-05-24T05:28:32;25.70;49.10
48806;DHT22;34625;47.176;27.548;2023-05-24T05:30:58;25.50;48.70
48806;DHT22;34625;47.176;27.548;2023-05-24T05:33:24;25.50;47.70
48806;DHT22;34625;47.176;27.548;2023-05-24T05:35:50;25.50;48.40
48806;DHT22;34625;47.176;27.548;2023-05-24T05:38:16;25.50;48.40
48806;DHT22;34625;47.176;27.548;2023-05-24T05:40:42;25.50;47.40
48806;DHT22;34625;47.176;27.548;2023-05-24T05:43:08;25.50;47.50
48806;DHT22;34625;47.176;27.548;2023-05-24T05:45:34;25.40;47.00
48806;DHT22;34625;47.176;27.548;2023-05-24T05:48:00;25.40;47.80
48806;DHT22;34625;47.176;27.548;2023-05-24T05:50:26;25.50;48.30
48806;DHT22;34625;47.176;27.548;2023-05-24T05:52:52;25.40;48.00
48806;DHT22;34625;47.176;27.548;2023-05-24T05:55:18;25.60;48.30
48806;DHT22;34625;47.176;27.548;2023-05-24T05:57:44;25.60;48.40
48806;DHT22;34625;47.176;27.548;2023-05-24T06:00:11;25.40;48.70
48806;DHT22;34625;47.176;27.548;2023-05-24T06:02:40;25.60;48.80
48806;DHT22;34625;47.176;27.548;2023-05-24T06:05:06;25.60;48.80
48806;DHT22;34625;47.176;27.548;2023-05-24T06:07:32;25.50;48.80
48806;DHT22;34625;47.176;27.548;2023-05-24T06:09:58;25.50;48.70
48806;DHT22;34625;47.176;27.548;2023-05-24T06:12:24;25.50;48.80
48806;DHT22;34625;47.176;27.548;2023-05-24T06:14:51;25.50;48.80
48806;DHT22;34625;47.176;27.548;2023-05-24T06:17:17;25.70;48.50
48806;DHT22;34625;47.176;27.548;2023-05-24T06:19:43;25.70;48.70
48806;DHT22;34625;47.176;27.548;2023-05-24T06:22:10;25.70;48.60
48806;DHT22;34625;47.176;27.548;2023-05-24T06:24:37;25.60;50.20
48806;DHT22;34625;47.176;27.548;2023-05-24T06:27:04;25.70;50.70
48806;DHT22;34625;47.176;27.548;2023-05-24T06:29:30;25.70;49.80
48806;DHT22;34625;47.176;27.548;2023-05-24T06:31:56;25.60;49.30
48806;DHT22;34625;47.176;27.548;2023-05-24T06:34:22;25.60;48.60
48806;DHT22;34625;47.176;27.548;2023-05-24T06:36:48;25.70;48.70
48806;DHT22;34625;47.176;27.548;2023-05-24T06:39:16;25.70;48.70
48806;DHT22;34625;47.176;27.548;2023-05-24T06:41:43;25.60;48.40
48806;DHT22;34625;47.176;27.548;2023-05-24T06:44:09;25.70;48.30
48806;DHT22;34625;47.176;27.548;2023-05-24T06:46:35;25.70;48.00
48806;DHT22;34625;47.176;27.548;2023-05-24T06:49:02;25.80;47.90
48806;DHT22;34625;47.176;27.548;2023-05-24T06:51:28;25.70;47.90
48806;DHT22;34625;47.176;27.548;2023-05-24T06:53:54;25.80;47.90
48806;DHT22;34625;47.176;27.548;2023-05-24T06:56:20;25.80;47.80
48806;DHT22;34625;47.176;27.548;2023-05-24T06:58:47;25.80;48.00
48806;DHT22;34625;47.176;27.548;2023-05-24T07:01:13;25.70;47.80
48806;DHT22;34625;47.176;27.548;2023-05-24T07:03:40;25.80;47.20
48806;DHT22;34625;47.176;27.548;2023-05-24T07:06:06;25.70;47.50
48806;DHT22;34625;47.176;27.548;2023-05-24T07:08:34;25.80;49.30
48806;DHT22;34625;47.176;27.548;2023-05-24T07:11:01;25.80;49.10
48806;DHT22;34625;47.176;27.548;2023-05-24T07:13:27;25.80;49.30
48806;DHT22;34625;47.176;27.548;2023-05-24T07:15:53;25.90;49.90
48806;DHT22;34625;47.176;27.548;2023-05-24T07:18:19;25.90;50.00
48806;DHT22;34625;47.176;27.548;2023-05-24T07:20:45;25.90;49.10
48806;DHT22;34625;47.176;27.548;2023-05-24T07:23:11;25.80;50.00
48806;DHT22;34625;47.176;27.548;2023-05-24T07:25:37;25.90;50.40
48806;DHT22;34625;47.176;27.548;2023-05-24T07:28:03;25.90;50.90
48806;DHT22;34625;47.176;27.548;2023-05-24T07:30:29;25.80;51.20
48806;DHT22;34625;47.176;27.548;2023-05-24T07:32:55;25.90;50.40
48806;DHT22;34625;47.176;27.548;2023-05-24T07:35:21;25.80;50.00
48806;DHT22;34625;47.176;27.548;2023-05-24T07:37:48;25.70;50.10
48806;DHT22;34625;47.176;27.548;2023-05-24T07:40:14;25.80;49.80
48806;DHT22;34625;47.176;27.548;2023-05-24T07:42:40;25.80;49.70
48806;DHT22;34625;47.176;27.548;2023-05-24T07:45:07;25.70;49.50
48806;DHT22;34625;47.176;27.548;2023-05-24T07:47:35;25.70;49.50
48806;DHT22;34625;47.176;27.548;2023-05-24T07:50:02;25.70;49.60
48806;DHT22;34625;47.176;27.548;2023-05-24T07:52:28;25.80;49.60
48806;DHT22;34625;47.176;27.548;2023-05-24T07:54:55;25.80;49.70
48806;DHT22;34625;47.176;27.548;2023-05-24T07:57:21;25.90;49.70
48806;DHT22;34625;47.176;27.548;2023-05-24T07:59:47;25.80;49.70
48806;DHT22;34625;47.176;27.548;2023-05-24T08:02:13;25.80;49.70
48806;DHT22;34625;47.176;27.548;2023-05-24T08:04:41;25.90;49.70
48806;DHT22;34625;47.176;27.548;2023-05-24T08:07:08;25.80;49.60
48806;DHT22;34625;47.176;27.548;2023-05-24T08:09:34;25.80;49.70
48806;DHT22;34625;47.176;27.548;2023-05-24T08:12:02;25.90;49.70
48806;DHT22;34625;47.176;27.548;2023-05-24T08:14:28;25.80;49.70
48806;DHT22;34625;47.176;27.548;2023-05-24T08:16:54;25.80;49.70
48806;DHT22;34625;47.176;27.548;2023-05-24T08:19:20;25.90;48.40
48806;DHT22;34625;47.176;27.548;2023-05-24T08:21:46;25.80;49.60
48806;DHT22;34625;47.176;27.548;2023-05-24T08:24:12;25.90;49.70
48806;DHT22;34625;47.176;27.548;2023-05-24T08:26:38;26.00;50.10
48806;DHT22;34625;47.176;27.548;2023-05-24T08:29:04;26.00;50.20
48806;DHT22;34625;47.176;27.548;2023-05-24T08:31:30;26.00;49.60
48806;DHT22;34625;47.176;27.548;2023-05-24T08:33:58;25.90;49.60
48806;DHT22;34625;47.176;27.548;2023-05-24T08:36:24;26.00;50.20
48806;DHT22;34625;47.176;27.548;2023-05-24T08:38:50;26.00;50.00
48806;DHT22;34625;47.176;27.548;2023-05-24T08:41:16;26.00;50.20
48806;DHT22;34625;47.176;27.548;2023-05-24T08:43:42;25.90;49.70
48806;DHT22;34625;47.176;27.548;2023-05-24T08:46:11;25.90;49.70
48806;DHT22;34625;47.176;27.548;2023-05-24T08:48:44;26.00;49.90
48806;DHT22;34625;47.176;27.548;2023-05-24T08:51:13;26.00;50.20
48806;DHT22;34625;47.176;27.548;2023-05-24T08:53:40;26.00;50.10
48806;DHT22;34625;47.176;27.548;2023-05-24T08:56:16;26.10;50.20
48806;DHT22;34625;47.176;27.548;2023-05-24T08:58:43;26.00;50.30
48806;DHT22;34625;47.176;27.548;2023-05-24T09:01:10;26.00;50.30
48806;DHT22;34625;47.176;27.548;2023-05-24T09:03:39;26.10;50.30
48806;DHT22;34625;47.176;27.548;2023-05-24T09:06:08;26.00;50.20
48806;DHT22;34625;47.176;27.548;2023-05-24T09:08:36;26.10;50.20
48806;DHT22;34625;47.176;27.548;2023-05-24T09:11:04;26.10;50.30
48806;DHT22;34625;47.176;27.548;2023-05-24T09:13:32;26.00;50.10
48806;DHT22;34625;47.176;27.548;2023-05-24T09:16:00;26.10;50.20
48806;DHT22;34625;47.176;27.548;2023-05-24T09:18:27;26.00;50.30
48806;DHT22;34625;47.176;27.548;2023-05-24T09:20:53;26.10;50.30
48806;DHT22;34625;47.176;27.548;2023-05-24T09:23:19;26.10;50.30
48806;DHT22;34625;47.176;27.548;2023-05-24T09:25:46;26.00;50.40
48806;DHT22;34625;47.176;27.548;2023-05-24T09:28:14;26.00;50.40
48806;DHT22;34625;47.176;27.548;2023-05-24T09:30:43;26.20;50.50
48806;DHT22;34625;47.176;27.548;2023-05-24T09:33:09;26.00;50.40
48806;DHT22;34625;47.176;27.548;2023-05-24T09:35:36;26.10;50.50
48806;DHT22;34625;47.176;27.548;2023-05-24T09:38:02;26.10;49.90
48806;DHT22;34625;47.176;27.548;2023-05-24T09:40:28;26.10;50.40
48806;DHT22;34625;47.176;27.548;2023-05-24T09:43:10;26.10;50.00
48806;DHT22;34625;47.176;27.548;2023-05-24T09:45:46;26.10;50.40
48806;DHT22;34625;47.176;27.548;2023-05-24T09:48:13;26.10;50.50
48806;DHT22;34625;47.176;27.548;2023-05-24T09:50:40;26.20;50.50
48806;DHT22;34625;47.176;27.548;2023-05-24T09:53:06;26.10;50.50
48806;DHT22;34625;47.176;27.548;2023-05-24T09:55:36;26.10;50.50
48806;DHT22;34625;47.176;27.548;2023-05-24T09:58:05;26.10;49.70
48806;DHT22;34625;47.176;27.548;2023-05-24T10:00:40;26.10;49.20
48806;DHT22;34625;47.176;27.548;2023-05-24T10:03:07;26.10;50.50
48806;DHT22;34625;47.176;27.548;2023-05-24T10:05:34;26.10;50.50
48806;DHT22;34625;47.176;27.548;2023-05-24T10:08:01;26.10;50.40
48806;DHT22;34625;47.176;27.548;2023-05-24T10:10:31;26.10;50.60
48806;DHT22;34625;47.176;27.548;2023-05-24T10:12:59;26.00;50.60
48806;DHT22;34625;47.176;27.548;2023-05-24T10:15:25;26.10;50.60
48806;DHT22;34625;47.176;27.548;2023-05-24T10:17:56;26.00;50.60
48806;DHT22;34625;47.176;27.548;2023-05-24T10:20:25;26.00;50.60
48806;DHT22;34625;47.176;27.548;2023-05-24T10:22:54;26.00;52.50
48806;DHT22;34625;47.176;27.548;2023-05-24T10:25:26;26.00;54.70
48806;DHT22;34625;47.176;27.548;2023-05-24T10:28:07;26.50;57.20
48806;DHT22;34625;47.176;27.548;2023-05-24T10:30:41;26.70;54.00
48806;DHT22;34625;47.176;27.548;2023-05-24T10:33:08;26.90;56.50
48806;DHT22;34625;47.176;27.548;2023-05-24T10:35:38;27.10;54.80
48806;DHT22;34625;47.176;27.548;2023-05-24T10:38:08;27.10;57.90
48806;DHT22;34625;47.176;27.548;2023-05-24T10:40:35;27.30;57.80
48806;DHT22;34625;47.176;27.548;2023-05-24T10:43:06;27.30;58.20
48806;DHT22;34625;47.176;27.548;2023-05-24T10:45:37;27.50;56.90
48806;DHT22;34625;47.176;27.548;2023-05-24T10:50:39;27.60;45.60
48806;DHT22;34625;47.176;27.548;2023-05-24T10:53:13;27.60;44.80
48806;DHT22;34625;47.176;27.548;2023-05-24T10:56:00;27.50;46.60
48806;DHT22;34625;47.176;27.548;2023-05-24T10:58:43;27.50;45.30
48806;DHT22;34625;47.176;27.548;2023-05-24T11:01:24;27.20;44.40
48806;DHT22;34625;47.176;27.548;2023-05-24T11:03:52;27.10;43.60
48806;DHT22;34625;47.176;27.548;2023-05-24T11:06:17;27.00;44.90
48806;DHT22;34625;47.176;27.548;2023-05-24T11:08:44;27.10;43.70
48806;DHT22;34625;47.176;27.548;2023-05-24T11:11:14;27.10;43.90
48806;DHT22;34625;47.176;27.548;2023-05-24T11:13:46;26.90;43.90
48806;DHT22;34625;47.176;27.548;2023-05-24T11:16:43;26.80;43.70
48806;DHT22;34625;47.176;27.548;2023-05-24T11:19:20;26.90;49.00
48806;DHT22;34625;47.176;27.548;2023-05-24T11:21:49;26.90;49.90
48806;DHT22;34625;47.176;27.548;2023-05-24T11:24:16;26.90;50.30
48806;DHT22;34625;47.176;27.548;2023-05-24T11:26:43;26.90;50.50
48806;DHT22;34625;47.176;27.548;2023-05-24T11:29:12;26.80;50.80
48806;DHT22;34625;47.176;27.548;2023-05-24T11:31:53;27.00;49.70
48806;DHT22;34625;47.176;27.548;2023-05-24T11:34:22;26.80;51.30
48806;DHT22;34625;47.176;27.548;2023-05-24T11:36:49;26.80;51.40
48806;DHT22;34625;47.176;27.548;2023-05-24T11:39:20;26.80;52.10
48806;DHT22;34625;47.176;27.548;2023-05-24T11:41:46;26.70;52.20
48806;DHT22;34625;47.176;27.548;2023-05-24T11:44:17;26.80;52.00
48806;DHT22;34625;47.176;27.548;2023-05-24T11:46:45;26.80;51.70
48806;DHT22;34625;47.176;27.548;2023-05-24T11:49:12;26.80;51.50
48806;DHT22;34625;47.176;27.548;2023-05-24T11:51:39;26.70;51.60
48806;DHT22;34625;47.176;27.548;2023-05-24T11:54:05;26.70;49.90
48806;DHT22;34625;47.176;27.548;2023-05-24T11:56:31;26.60;50.40
48806;DHT22;34625;47.176;27.548;2023-05-24T11:59:16;26.80;51.00
48806;DHT22;34625;47.176;27.548;2023-05-24T12:01:43;26.70;50.20
48806;DHT22;34625;47.176;27.548;2023-05-24T12:04:09;26.70;48.50
48806;DHT22;34625;47.176;27.548;2023-05-24T12:06:41;26.60;46.80
48806;DHT22;34625;47.176;27.548;2023-05-24T12:09:08;26.60;51.20
48806;DHT22;34625;47.176;27.548;2023-05-24T12:11:48;26.60;50.70
48806;DHT22;34625;47.176;27.548;2023-05-24T12:14:17;26.60;46.80
48806;DHT22;34625;47.176;27.548;2023-05-24T12:16:44;26.60;47.40
48806;DHT22;34625;47.176;27.548;2023-05-24T12:19:20;26.60;50.00
48806;DHT22;34625;47.176;27.548;2023-05-24T12:21:48;26.60;50.50
48806;DHT22;34625;47.176;27.548;2023-05-24T12:24:16;26.50;48.40
48806;DHT22;34625;47.176;27.548;2023-05-24T12:26:49;26.50;49.50
48806;DHT22;34625;47.176;27.548;2023-05-24T12:29:16;26.40;48.60
48806;DHT22;34625;47.176;27.548;2023-05-24T12:31:44;26.30;49.80
48806;DHT22;34625;47.176;27.548;2023-05-24T12:34:19;26.40;48.60
48806;DHT22;34625;47.176;27.548;2023-05-24T12:36:46;26.40;48.40
48806;DHT22;34625;47.176;27.548;2023-05-24T12:39:23;26.40;49.20
48806;DHT22;34625;47.176;27.548;2023-05-24T12:41:56;26.30;46.10
48806;DHT22;34625;47.176;27.548;2023-05-24T12:44:32;26.40;48.10
48806;DHT22;34625;47.176;27.548;2023-05-24T12:47:00;26.30;48.70
48806;DHT22;34625;47.176;27.548;2023-05-24T12:49:26;26.30;49.30
48806;DHT22;34625;47.176;27.548;2023-05-24T12:51:53;26.40;46.80
48806;DHT22;34625;47.176;27.548;2023-05-24T12:54:25;26.20;46.80
48806;DHT22;34625;47.176;27.548;2023-05-24T12:56:52;26.40;48.40
48806;DHT22;34625;47.176;27.548;2023-05-24T12:59:19;26.30;46.20
48806;DHT22;34625;47.176;27.548;2023-05-24T13:01:45;26.30;47.90
48806;DHT22;34625;47.176;27.548;2023-05-24T13:04:17;26.30;47.50
48806;DHT22;34625;47.176;27.548;2023-05-24T13:06:44;26.30;48.00
48806;DHT22;34625;47.176;27.548;2023-05-24T13:09:10;26.20;44.30
48806;DHT22;34625;47.176;27.548;2023-05-24T13:11:36;26.20;48.10
48806;DHT22;34625;47.176;27.548;2023-05-24T13:14:03;26.30;45.80
48806;DHT22;34625;47.176;27.548;2023-05-24T13:16:29;26.20;46.60
48806;DHT22;34625;47.176;27.548;2023-05-24T13:18:55;26.20;47.00
48806;DHT22;34625;47.176;27.548;2023-05-24T13:21:21;26.10;48.30
48806;DHT22;34625;47.176;27.548;2023-05-24T13:23:48;26.20;48.50
48806;DHT22;34625;47.176;27.548;2023-05-24T13:26:14;26.10;48.40
48806;DHT22;34625;47.176;27.548;2023-05-24T13:28:40;26.10;48.50
48806;DHT22;34625;47.176;27.548;2023-05-24T13:31:07;26.10;48.40
48806;DHT22;34625;47.176;27.548;2023-05-24T13:33:33;26.10;48.50
48806;DHT22;34625;47.176;27.548;2023-05-24T13:36:00;26.10;47.90
48806;DHT22;34625;47.176;27.548;2023-05-24T13:38:26;26.10;48.60
48806;DHT22;34625;47.176;27.548;2023-05-24T13:40:53;26.00;46.30
48806;DHT22;34625;47.176;27.548;2023-05-24T13:43:19;26.10;46.70
48806;DHT22;34625;47.176;27.548;2023-05-24T13:45:48;26.10;48.50
48806;DHT22;34625;47.176;27.548;2023-05-24T13:48:15;26.20;48.80
48806;DHT22;34625;47.176;27.548;2023-05-24T13:50:41;26.00;48.90
48806;DHT22;34625;47.176;27.548;2023-05-24T13:53:07;26.20;49.00
48806;DHT22;34625;47.176;27.548;2023-05-24T13:55:34;26.00;49.00
48806;DHT22;34625;47.176;27.548;2023-05-24T13:58:02;26.10;49.10
48806;DHT22;34625;47.176;27.548;2023-05-24T14:00:30;26.10;49.10
48806;DHT22;34625;47.176;27.548;2023-05-24T14:02:56;26.10;49.10
48806;DHT22;34625;47.176;27.548;2023-05-24T14:05:22;26.10;49.10
48806;DHT22;34625;47.176;27.548;2023-05-24T14:07:48;26.10;49.10
48806;DHT22;34625;47.176;27.548;2023-05-24T14:10:15;26.10;49.10
48806;DHT22;34625;47.176;27.548;2023-05-24T14:12:41;26.10;49.20
48806;DHT22;34625;47.176;27.548;2023-05-24T14:15:07;26.10;49.30
48806;DHT22;34625;47.176;27.548;2023-05-24T14:17:33;26.10;49.20
48806;DHT22;34625;47.176;27.548;2023-05-24T14:20:00;26.00;49.30
48806;DHT22;34625;47.176;27.548;2023-05-24T14:22:26;26.10;49.30
48806;DHT22;34625;47.176;27.548;2023-05-24T14:24:54;26.00;49.40
48806;DHT22;34625;47.176;27.548;2023-05-24T14:27:20;25.80;49.00
48806;DHT22;34625;47.176;27.548;2023-05-24T14:29:46;25.80;49.00
48806;DHT22;34625;47.176;27.548;2023-05-24T14:32:12;26.00;49.50
48806;DHT22;34625;47.176;27.548;2023-05-24T14:34:41;25.90;49.10
48806;DHT22;34625;47.176;27.548;2023-05-24T14:37:07;26.00;49.70
48806;DHT22;34625;47.176;27.548;2023-05-24T14:39:33;25.90;49.30
48806;DHT22;34625;47.176;27.548;2023-05-24T14:41:59;26.00;49.80
48806;DHT22;34625;47.176;27.548;2023-05-24T14:44:25;26.00;50.00
48806;DHT22;34625;47.176;27.548;2023-05-24T14:46:52;25.80;49.50
48806;DHT22;34625;47.176;27.548;2023-05-24T14:49:18;26.00;50.10
48806;DHT22;34625;47.176;27.548;2023-05-24T14:51:46;25.90;49.80
48806;DHT22;34625;47.176;27.548;2023-05-24T14:54:15;25.90;50.00
48806;DHT22;34625;47.176;27.548;2023-05-24T14:56:41;25.90;50.30
48806;DHT22;34625;47.176;27.548;2023-05-24T14:59:14;26.00;52.10
48806;DHT22;34625;47.176;27.548;2023-05-24T15:01:47;26.00;53.10
48806;DHT22;34625;47.176;27.548;2023-05-24T15:04:13;26.00;54.50
48806;DHT22;34625;47.176;27.548;2023-05-24T15:06:39;25.90;53.90
48806;DHT22;34625;47.176;27.548;2023-05-24T15:09:05;26.00;55.70
48806;DHT22;34625;47.176;27.548;2023-05-24T15:11:32;26.20;54.50
48806;DHT22;34625;47.176;27.548;2023-05-24T15:13:58;26.60;53.50
48806;DHT22;34625;47.176;27.548;2023-05-24T15:16:25;26.90;52.40
48806;DHT22;34625;47.176;27.548;2023-05-24T15:18:52;26.90;50.30
48806;DHT22;34625;47.176;27.548;2023-05-24T15:21:21;27.00;51.50
48806;DHT22;34625;47.176;27.548;2023-05-24T15:23:47;27.10;49.40
48806;DHT22;34625;47.176;27.548;2023-05-24T15:26:13;26.90;49.70
48806;DHT22;34625;47.176;27.548;2023-05-24T15:28:39;26.90;50.90
48806;DHT22;34625;47.176;27.548;2023-05-24T15:31:05;26.80;51.10
48806;DHT22;34625;47.176;27.548;2023-05-24T15:33:31;26.80;51.20
48806;DHT22;34625;47.176;27.548;2023-05-24T15:35:58;26.80;51.50
48806;DHT22;34625;47.176;27.548;2023-05-24T15:38:24;26.70;51.30
48806;DHT22;34625;47.176;27.548;2023-05-24T15:40:50;26.80;51.80